sensor_id;sensor_type;location;lat;lon;timestamp;P1;durP1;ratioP1;P2;durP2;ratioP2
22652;SDS011;11493;43.344;26.226;2023-07-02T00:00:10;5.82;;;5.32;;
22652;SDS011;11493;43.344;26.226;2023-07-02T00:02:38;5.65;;;5.25;;
22652;SDS011;11493;43.344;26.226;2023-07-02T00:05:05;8.20;;;5.68;;
22652;SDS011;11493;43.344;26.226;2023-07-02T00:07:34;8.00;;;5.28;;
22652;SDS011;11493;43.344;26.226;2023-07-02T00:10:03;6.22;;;5.07;;
22652;SDS011;11493;43.344;26.226;2023-07-02T00:12:31;10.45;;;5.53;;
22652;SDS011;11493;43.344;26.226;2023-07-02T00:14:58;6.35;;;5.80;;
22652;SDS011;11493;43.344;26.226;2023-07-02T00:17:25;5.80;;;4.80;;
22652;SDS011;11493;43.344;26.226;2023-07-02T00:19:52;11.55;;;5.50;;
22652;SDS011;11493;43.344;26.226;2023-07-02T00:22:19;8.85;;;5.25;;
22652;SDS011;11493;43.344;26.226;2023-07-02T00:24:47;5.95;;;5.35;;
22652;SDS011;11493;43.344;26.226;2023-07-02T00:27:14;5.97;;;5.57;;
22652;SDS011;11493;43.344;26.226;2023-07-02T00:29:41;9.07;;;5.97;;
22652;SDS011;11493;43.344;26.226;2023-07-02T00:32:09;5.60;;;5.15;;
22652;SDS011;11493;43.344;26.226;2023-07-02T00:34:36;7.60;;;6.35;;
22652;SDS011;11493;43.344;26.226;2023-07-02T00:37:03;6.60;;;6.00;;
22652;SDS011;11493;43.344;26.226;2023-07-02T00:39:30;7.82;;;6.38;;
22652;SDS011;11493;43.344;26.226;2023-07-02T00:42:03;6.85;;;6.25;;
22652;SDS011;11493;43.344;26.226;2023-07-02T00:44:31;10.55;;;6.78;;
22652;SDS011;11493;43.344;26.226;2023-07-02T00:46:58;9.23;;;6.53;;
22652;SDS011;11493;43.344;26.226;2023-07-02T00:49:26;7.40;;;6.70;;
22652;SDS011;11493;43.344;26.226;2023-07-02T00:51:53;9.73;;;6.85;;
22652;SDS011;11493;43.344;26.226;2023-07-02T00:54:21;11.93;;;7.00;;
22652;SDS011;11493;43.344;26.226;2023-07-02T00:56:48;7.32;;;6.82;;
22652;SDS011;11493;43.344;26.226;2023-07-02T00:59:15;7.95;;;7.35;;
22652;SDS011;11493;43.344;26.226;2023-07-02T01:01:42;7.60;;;7.10;;
22652;SDS011;11493;43.344;26.226;2023-07-02T01:04:10;8.98;;;6.78;;
22652;SDS011;11493;43.344;26.226;2023-07-02T01:06:39;7.80;;;7.00;;
22652;SDS011;11493;43.344;26.226;2023-07-02T01:09:09;6.80;;;6.20;;
22652;SDS011;11493;43.344;26.226;2023-07-02T01:11:43;10.27;;;5.05;;
22652;SDS011;11493;43.344;26.226;2023-07-02T01:14:13;7.40;;;4.90;;
22652;SDS011;11493;43.344;26.226;2023-07-02T01:16:43;5.05;;;4.65;;
22652;SDS011;11493;43.344;26.226;2023-07-02T01:19:21;8.90;;;4.88;;
22652;SDS011;11493;43.344;26.226;2023-07-02T01:22:18;6.97;;;6.32;;
22652;SDS011;11493;43.344;26.226;2023-07-02T01:24:47;6.93;;;5.68;;
22652;SDS011;11493;43.344;26.226;2023-07-02T01:27:15;8.88;;;6.30;;
22652;SDS011;11493;43.344;26.226;2023-07-02T01:29:43;6.60;;;5.72;;
22652;SDS011;11493;43.344;26.226;2023-07-02T01:32:13;10.40;;;6.70;;
22652;SDS011;11493;43.344;26.226;2023-07-02T01:34:41;24.65;;;16.48;;
22652;SDS011;11493;43.344;26.226;2023-07-02T01:37:10;31.08;;;17.73;;
22652;SDS011;11493;43.344;26.226;2023-07-02T01:39:37;21.77;;;17.33;;
22652;SDS011;11493;43.344;26.226;2023-07-02T01:42:12;12.35;;;9.38;;
22652;SDS011;11493;43.344;26.226;2023-07-02T01:44:45;4.22;;;3.85;;
22652;SDS011;11493;43.344;26.226;2023-07-02T01:47:15;4.55;;;4.10;;
22652;SDS011;11493;43.344;26.226;2023-07-02T01:49:43;4.70;;;3.75;;
22652;SDS011;11493;43.344;26.226;2023-07-02T01:52:10;4.43;;;3.20;;
22652;SDS011;11493;43.344;26.226;2023-07-02T01:54:37;5.20;;;3.60;;
22652;SDS011;11493;43.344;26.226;2023-07-02T01:57:05;10.90;;;4.60;;
22652;SDS011;11493;43.344;26.226;2023-07-02T01:59:32;12.68;;;5.55;;
22652;SDS011;11493;43.344;26.226;2023-07-02T02:01:59;8.07;;;5.28;;
22652;SDS011;11493;43.344;26.226;2023-07-02T02:04:26;10.32;;;9.43;;
22652;SDS011;11493;43.344;26.226;2023-07-02T02:06:53;17.70;;;16.02;;
22652;SDS011;11493;43.344;26.226;2023-07-02T02:09:20;15.65;;;14.35;;
22652;SDS011;11493;43.344;26.226;2023-07-02T02:11:48;16.67;;;13.40;;
22652;SDS011;11493;43.344;26.226;2023-07-02T02:14:16;10.85;;;9.75;;
22652;SDS011;11493;43.344;26.226;2023-07-02T02:16:43;10.20;;;9.40;;
22652;SDS011;11493;43.344;26.226;2023-07-02T02:19:14;10.15;;;9.25;;
22652;SDS011;11493;43.344;26.226;2023-07-02T02:21:42;15.95;;;9.00;;
22652;SDS011;11493;43.344;26.226;2023-07-02T02:24:10;8.07;;;7.47;;
22652;SDS011;11493;43.344;26.226;2023-07-02T02:26:37;8.77;;;7.88;;
22652;SDS011;11493;43.344;26.226;2023-07-02T02:29:04;11.38;;;6.47;;
22652;SDS011;11493;43.344;26.226;2023-07-02T02:31:31;6.65;;;6.15;;
22652;SDS011;11493;43.344;26.226;2023-07-02T02:34:00;8.45;;;5.70;;
22652;SDS011;11493;43.344;26.226;2023-07-02T02:36:28;5.82;;;4.22;;
22652;SDS011;11493;43.344;26.226;2023-07-02T02:38:55;5.03;;;4.50;;
22652;SDS011;11493;43.344;26.226;2023-07-02T02:41:24;5.35;;;4.85;;
22652;SDS011;11493;43.344;26.226;2023-07-02T02:43:52;6.07;;;5.57;;
22652;SDS011;11493;43.344;26.226;2023-07-02T02:46:21;9.27;;;6.10;;
22652;SDS011;11493;43.344;26.226;2023-07-02T02:48:49;6.18;;;5.32;;
22652;SDS011;11493;43.344;26.226;2023-07-02T02:51:16;6.80;;;5.40;;
22652;SDS011;11493;43.344;26.226;2023-07-02T02:53:43;6.78;;;6.18;;
22652;SDS011;11493;43.344;26.226;2023-07-02T02:56:10;9.10;;;5.65;;
22652;SDS011;11493;43.344;26.226;2023-07-02T02:58:37;4.32;;;3.92;;
22652;SDS011;11493;43.344;26.226;2023-07-02T03:01:07;5.57;;;4.53;;
22652;SDS011;11493;43.344;26.226;2023-07-02T03:06:06;5.50;;;4.78;;
22652;SDS011;11493;43.344;26.226;2023-07-02T03:08:33;5.72;;;5.22;;
22652;SDS011;11493;43.344;26.226;2023-07-02T03:11:00;9.20;;;6.03;;
22652;SDS011;11493;43.344;26.226;2023-07-02T03:13:27;5.63;;;5.13;;
22652;SDS011;11493;43.344;26.226;2023-07-02T03:15:54;6.53;;;5.88;;
22652;SDS011;11493;43.344;26.226;2023-07-02T03:18:21;7.30;;;5.57;;
22652;SDS011;11493;43.344;26.226;2023-07-02T03:20:48;5.68;;;5.15;;
22652;SDS011;11493;43.344;26.226;2023-07-02T03:23:16;5.75;;;5.25;;
22652;SDS011;11493;43.344;26.226;2023-07-02T03:25:43;6.28;;;5.78;;
22652;SDS011;11493;43.344;26.226;2023-07-02T03:28:10;12.75;;;6.30;;
22652;SDS011;11493;43.344;26.226;2023-07-02T03:30:37;9.10;;;6.45;;
22652;SDS011;11493;43.344;26.226;2023-07-02T03:33:05;9.95;;;6.25;;
22652;SDS011;11493;43.344;26.226;2023-07-02T03:35:32;17.85;;;15.95;;
22652;SDS011;11493;43.344;26.226;2023-07-02T03:37:59;20.08;;;18.50;;
22652;SDS011;11493;43.344;26.226;2023-07-02T03:40:26;28.55;;;25.83;;
22652;SDS011;11493;43.344;26.226;2023-07-02T03:42:53;30.77;;;27.95;;
22652;SDS011;11493;43.344;26.226;2023-07-02T03:45:20;33.30;;;29.73;;
22652;SDS011;11493;43.344;26.226;2023-07-02T03:47:47;27.00;;;24.17;;
22652;SDS011;11493;43.344;26.226;2023-07-02T03:50:14;23.77;;;21.33;;
22652;SDS011;11493;43.344;26.226;2023-07-02T03:52:41;21.25;;;16.58;;
22652;SDS011;11493;43.344;26.226;2023-07-02T03:55:08;15.00;;;11.75;;
22652;SDS011;11493;43.344;26.226;2023-07-02T03:57:35;10.05;;;9.07;;
22652;SDS011;11493;43.344;26.226;2023-07-02T04:00:02;7.13;;;6.53;;
22652;SDS011;11493;43.344;26.226;2023-07-02T04:02:40;5.68;;;5.10;;
22652;SDS011;11493;43.344;26.226;2023-07-02T04:05:07;5.07;;;4.57;;
22652;SDS011;11493;43.344;26.226;2023-07-02T04:07:35;6.80;;;4.50;;
22652;SDS011;11493;43.344;26.226;2023-07-02T04:10:02;4.70;;;4.40;;
22652;SDS011;11493;43.344;26.226;2023-07-02T04:12:29;6.43;;;5.93;;
22652;SDS011;11493;43.344;26.226;2023-07-02T04:14:57;9.13;;;5.78;;
22652;SDS011;11493;43.344;26.226;2023-07-02T04:17:25;6.57;;;5.97;;
22652;SDS011;11493;43.344;26.226;2023-07-02T04:19:53;8.00;;;5.93;;
22652;SDS011;11493;43.344;26.226;2023-07-02T04:22:21;7.47;;;6.78;;
22652;SDS011;11493;43.344;26.226;2023-07-02T04:24:48;5.80;;;5.40;;
22652;SDS011;11493;43.344;26.226;2023-07-02T04:27:19;6.65;;;4.80;;
22652;SDS011;11493;43.344;26.226;2023-07-02T04:30:07;5.15;;;4.20;;
22652;SDS011;11493;43.344;26.226;2023-07-02T04:32:35;6.20;;;4.55;;
22652;SDS011;11493;43.344;26.226;2023-07-02T04:37:34;21.35;;;16.95;;
22652;SDS011;11493;43.344;26.226;2023-07-02T04:40:02;17.63;;;13.32;;
22652;SDS011;11493;43.344;26.226;2023-07-02T04:42:47;9.82;;;6.50;;
22652;SDS011;11493;43.344;26.226;2023-07-02T04:45:14;10.10;;;7.10;;
22652;SDS011;11493;43.344;26.226;2023-07-02T04:47:44;13.38;;;9.07;;
22652;SDS011;11493;43.344;26.226;2023-07-02T04:50:12;6.63;;;6.00;;
22652;SDS011;11493;43.344;26.226;2023-07-02T04:52:39;6.75;;;5.90;;
22652;SDS011;11493;43.344;26.226;2023-07-02T04:55:06;14.73;;;8.25;;
22652;SDS011;11493;43.344;26.226;2023-07-02T04:57:33;11.35;;;8.77;;
22652;SDS011;11493;43.344;26.226;2023-07-02T05:00:01;13.60;;;5.85;;
22652;SDS011;11493;43.344;26.226;2023-07-02T05:02:30;9.32;;;6.15;;
22652;SDS011;11493;43.344;26.226;2023-07-02T05:04:57;7.40;;;5.03;;
22652;SDS011;11493;43.344;26.226;2023-07-02T05:07:25;5.05;;;4.25;;
22652;SDS011;11493;43.344;26.226;2023-07-02T05:09:52;5.35;;;4.50;;
22652;SDS011;11493;43.344;26.226;2023-07-02T05:12:21;4.70;;;3.88;;
22652;SDS011;11493;43.344;26.226;2023-07-02T05:14:48;5.28;;;4.10;;
22652;SDS011;11493;43.344;26.226;2023-07-02T05:17:15;8.05;;;4.50;;
22652;SDS011;11493;43.344;26.226;2023-07-02T05:19:42;8.20;;;5.07;;
22652;SDS011;11493;43.344;26.226;2023-07-02T05:22:09;6.80;;;4.82;;
22652;SDS011;11493;43.344;26.226;2023-07-02T05:24:37;5.43;;;4.97;;
22652;SDS011;11493;43.344;26.226;2023-07-02T05:27:04;7.90;;;5.40;;
22652;SDS011;11493;43.344;26.226;2023-07-02T05:29:31;5.72;;;5.22;;
22652;SDS011;11493;43.344;26.226;2023-07-02T05:31:58;6.43;;;5.00;;
22652;SDS011;11493;43.344;26.226;2023-07-02T05:34:26;6.88;;;4.45;;
22652;SDS011;11493;43.344;26.226;2023-07-02T05:36:53;7.43;;;4.07;;
22652;SDS011;11493;43.344;26.226;2023-07-02T05:39:20;7.43;;;4.47;;
22652;SDS011;11493;43.344;26.226;2023-07-02T05:41:48;5.75;;;4.63;;
22652;SDS011;11493;43.344;26.226;2023-07-02T05:44:16;5.68;;;4.90;;
22652;SDS011;11493;43.344;26.226;2023-07-02T05:46:43;7.72;;;4.82;;
22652;SDS011;11493;43.344;26.226;2023-07-02T05:49:12;4.65;;;4.35;;
22652;SDS011;11493;43.344;26.226;2023-07-02T05:51:39;7.00;;;5.20;;
22652;SDS011;11493;43.344;26.226;2023-07-02T05:54:07;5.85;;;4.45;;
22652;SDS011;11493;43.344;26.226;2023-07-02T05:56:34;5.50;;;4.97;;
22652;SDS011;11493;43.344;26.226;2023-07-02T05:59:02;7.57;;;5.22;;
22652;SDS011;11493;43.344;26.226;2023-07-02T06:01:29;5.00;;;4.50;;
22652;SDS011;11493;43.344;26.226;2023-07-02T06:03:56;6.18;;;4.22;;
22652;SDS011;11493;43.344;26.226;2023-07-02T06:06:25;6.43;;;4.30;;
22652;SDS011;11493;43.344;26.226;2023-07-02T06:08:52;6.13;;;5.35;;
22652;SDS011;11493;43.344;26.226;2023-07-02T06:11:19;11.45;;;6.18;;
22652;SDS011;11493;43.344;26.226;2023-07-02T06:13:46;8.70;;;5.72;;
22652;SDS011;11493;43.344;26.226;2023-07-02T06:16:15;6.10;;;5.35;;
22652;SDS011;11493;43.344;26.226;2023-07-02T06:18:43;6.57;;;5.97;;
22652;SDS011;11493;43.344;26.226;2023-07-02T06:21:10;6.40;;;4.70;;
22652;SDS011;11493;43.344;26.226;2023-07-02T06:23:43;5.55;;;5.00;;
22652;SDS011;11493;43.344;26.226;2023-07-02T06:26:10;6.18;;;3.42;;
22652;SDS011;11493;43.344;26.226;2023-07-02T06:28:38;8.85;;;4.60;;
22652;SDS011;11493;43.344;26.226;2023-07-02T06:31:06;5.55;;;3.40;;
22652;SDS011;11493;43.344;26.226;2023-07-02T06:33:33;4.60;;;3.53;;
22652;SDS011;11493;43.344;26.226;2023-07-02T06:36:00;6.47;;;4.28;;
22652;SDS011;11493;43.344;26.226;2023-07-02T06:38:28;5.07;;;4.68;;
22652;SDS011;11493;43.344;26.226;2023-07-02T06:40:55;3.95;;;3.55;;
22652;SDS011;11493;43.344;26.226;2023-07-02T06:43:22;19.20;;;7.28;;
22652;SDS011;11493;43.344;26.226;2023-07-02T06:45:49;9.98;;;6.13;;
22652;SDS011;11493;43.344;26.226;2023-07-02T06:48:16;6.15;;;5.65;;
22652;SDS011;11493;43.344;26.226;2023-07-02T06:53:30;3.88;;;3.40;;
22652;SDS011;11493;43.344;26.226;2023-07-02T06:56:09;3.75;;;3.28;;
22652;SDS011;11493;43.344;26.226;2023-07-02T06:58:50;3.97;;;3.33;;
22652;SDS011;11493;43.344;26.226;2023-07-02T07:01:17;5.47;;;4.13;;
22652;SDS011;11493;43.344;26.226;2023-07-02T07:03:44;4.40;;;3.97;;
22652;SDS011;11493;43.344;26.226;2023-07-02T07:06:11;3.63;;;3.33;;
22652;SDS011;11493;43.344;26.226;2023-07-02T07:08:39;5.97;;;3.83;;
22652;SDS011;11493;43.344;26.226;2023-07-02T07:11:06;6.28;;;3.72;;
22652;SDS011;11493;43.344;26.226;2023-07-02T07:13:33;6.80;;;3.95;;
22652;SDS011;11493;43.344;26.226;2023-07-02T07:16:00;4.93;;;3.63;;
22652;SDS011;11493;43.344;26.226;2023-07-02T07:18:28;6.43;;;3.88;;
22652;SDS011;11493;43.344;26.226;2023-07-02T07:20:58;3.88;;;3.58;;
22652;SDS011;11493;43.344;26.226;2023-07-02T07:23:25;5.68;;;3.45;;
22652;SDS011;11493;43.344;26.226;2023-07-02T07:25:52;4.97;;;3.55;;
22652;SDS011;11493;43.344;26.226;2023-07-02T07:28:19;6.45;;;3.30;;
22652;SDS011;11493;43.344;26.226;2023-07-02T07:30:47;3.80;;;3.50;;
22652;SDS011;11493;43.344;26.226;2023-07-02T07:33:14;6.55;;;3.45;;
22652;SDS011;11493;43.344;26.226;2023-07-02T07:35:42;3.33;;;3.03;;
22652;SDS011;11493;43.344;26.226;2023-07-02T07:38:09;5.10;;;3.63;;
22652;SDS011;11493;43.344;26.226;2023-07-02T07:40:36;4.35;;;3.58;;
22652;SDS011;11493;43.344;26.226;2023-07-02T07:43:03;4.45;;;3.38;;
22652;SDS011;11493;43.344;26.226;2023-07-02T07:45:31;3.60;;;3.30;;
22652;SDS011;11493;43.344;26.226;2023-07-02T07:48:00;3.90;;;3.20;;
22652;SDS011;11493;43.344;26.226;2023-07-02T07:50:30;6.55;;;3.38;;
22652;SDS011;11493;43.344;26.226;2023-07-02T07:52:57;4.32;;;3.97;;
22652;SDS011;11493;43.344;26.226;2023-07-02T07:55:25;4.05;;;3.53;;
22652;SDS011;11493;43.344;26.226;2023-07-02T07:57:52;6.70;;;3.65;;
22652;SDS011;11493;43.344;26.226;2023-07-02T08:00:20;8.95;;;3.53;;
22652;SDS011;11493;43.344;26.226;2023-07-02T08:02:47;6.10;;;3.80;;
22652;SDS011;11493;43.344;26.226;2023-07-02T08:05:15;5.72;;;3.65;;
22652;SDS011;11493;43.344;26.226;2023-07-02T08:07:43;4.57;;;3.78;;
22652;SDS011;11493;43.344;26.226;2023-07-02T08:10:10;4.07;;;3.78;;
22652;SDS011;11493;43.344;26.226;2023-07-02T08:12:38;4.40;;;4.00;;
22652;SDS011;11493;43.344;26.226;2023-07-02T08:15:06;5.82;;;3.75;;
22652;SDS011;11493;43.344;26.226;2023-07-02T08:17:33;3.97;;;3.63;;
22652;SDS011;11493;43.344;26.226;2023-07-02T08:20:01;5.35;;;3.80;;
22652;SDS011;11493;43.344;26.226;2023-07-02T08:22:28;4.97;;;4.47;;
22652;SDS011;11493;43.344;26.226;2023-07-02T08:24:55;7.18;;;4.40;;
22652;SDS011;11493;43.344;26.226;2023-07-02T08:27:23;4.68;;;4.20;;
22652;SDS011;11493;43.344;26.226;2023-07-02T08:29:50;5.03;;;4.63;;
22652;SDS011;11493;43.344;26.226;2023-07-02T08:32:17;8.20;;;4.40;;
22652;SDS011;11493;43.344;26.226;2023-07-02T08:34:44;9.55;;;4.43;;
22652;SDS011;11493;43.344;26.226;2023-07-02T08:37:11;6.10;;;4.07;;
22652;SDS011;11493;43.344;26.226;2023-07-02T08:39:39;4.32;;;3.92;;
22652;SDS011;11493;43.344;26.226;2023-07-02T08:42:07;4.68;;;4.18;;
22652;SDS011;11493;43.344;26.226;2023-07-02T08:44:34;4.65;;;4.30;;
22652;SDS011;11493;43.344;26.226;2023-07-02T08:47:05;8.00;;;4.40;;
22652;SDS011;11493;43.344;26.226;2023-07-02T08:49:32;7.72;;;4.18;;
22652;SDS011;11493;43.344;26.226;2023-07-02T08:52:00;8.35;;;4.32;;
22652;SDS011;11493;43.344;26.226;2023-07-02T08:54:27;5.00;;;4.53;;
22652;SDS011;11493;43.344;26.226;2023-07-02T08:56:54;6.78;;;4.65;;
22652;SDS011;11493;43.344;26.226;2023-07-02T08:59:22;5.32;;;4.95;;
22652;SDS011;11493;43.344;26.226;2023-07-02T09:01:50;5.63;;;5.07;;
22652;SDS011;11493;43.344;26.226;2023-07-02T09:04:23;6.07;;;5.00;;
22652;SDS011;11493;43.344;26.226;2023-07-02T09:07:04;5.60;;;4.97;;
22652;SDS011;11493;43.344;26.226;2023-07-02T09:09:46;5.47;;;4.95;;
22652;SDS011;11493;43.344;26.226;2023-07-02T09:12:21;5.25;;;4.85;;
22652;SDS011;11493;43.344;26.226;2023-07-02T09:14:55;5.55;;;5.00;;
22652;SDS011;11493;43.344;26.226;2023-07-02T09:17:28;6.57;;;5.95;;
22652;SDS011;11493;43.344;26.226;2023-07-02T09:19:57;8.27;;;5.75;;
22652;SDS011;11493;43.344;26.226;2023-07-02T09:22:27;6.50;;;5.90;;
22652;SDS011;11493;43.344;26.226;2023-07-02T09:24:55;6.40;;;5.80;;
22652;SDS011;11493;43.344;26.226;2023-07-02T09:27:36;6.57;;;5.88;;
22652;SDS011;11493;43.344;26.226;2023-07-02T09:32:35;5.63;;;5.22;;
22652;SDS011;11493;43.344;26.226;2023-07-02T09:35:03;6.55;;;5.95;;
22652;SDS011;11493;43.344;26.226;2023-07-02T09:37:31;7.57;;;6.00;;
22652;SDS011;11493;43.344;26.226;2023-07-02T09:39:59;8.68;;;5.90;;
22652;SDS011;11493;43.344;26.226;2023-07-02T09:42:28;6.57;;;5.95;;
22652;SDS011;11493;43.344;26.226;2023-07-02T09:45:02;7.78;;;6.55;;
22652;SDS011;11493;43.344;26.226;2023-07-02T09:47:44;7.30;;;6.70;;
22652;SDS011;11493;43.344;26.226;2023-07-02T09:50:15;7.47;;;6.53;;
22652;SDS011;11493;43.344;26.226;2023-07-02T09:52:45;10.48;;;7.72;;
22652;SDS011;11493;43.344;26.226;2023-07-02T09:55:15;8.68;;;6.82;;
22652;SDS011;11493;43.344;26.226;2023-07-02T09:57:43;8.50;;;6.88;;
22652;SDS011;11493;43.344;26.226;2023-07-02T10:00:11;10.10;;;6.90;;
22652;SDS011;11493;43.344;26.226;2023-07-02T10:02:39;10.70;;;7.00;;
22652;SDS011;11493;43.344;26.226;2023-07-02T10:05:06;8.90;;;6.65;;
22652;SDS011;11493;43.344;26.226;2023-07-02T10:07:34;10.73;;;6.68;;
22652;SDS011;11493;43.344;26.226;2023-07-02T10:10:01;11.68;;;6.80;;
22652;SDS011;11493;43.344;26.226;2023-07-02T10:12:29;16.10;;;6.85;;
22652;SDS011;11493;43.344;26.226;2023-07-02T10:14:57;13.63;;;6.07;;
22652;SDS011;11493;43.344;26.226;2023-07-02T10:17:34;10.02;;;6.25;;
22652;SDS011;11493;43.344;26.226;2023-07-02T10:20:06;7.68;;;6.40;;
22652;SDS011;11493;43.344;26.226;2023-07-02T10:22:42;6.80;;;6.15;;
22652;SDS011;11493;43.344;26.226;2023-07-02T10:25:10;6.40;;;5.82;;
22652;SDS011;11493;43.344;26.226;2023-07-02T10:27:42;8.23;;;5.95;;
22652;SDS011;11493;43.344;26.226;2023-07-02T10:30:09;10.10;;;6.68;;
22652;SDS011;11493;43.344;26.226;2023-07-02T10:32:37;7.60;;;6.80;;
22652;SDS011;11493;43.344;26.226;2023-07-02T10:35:15;7.25;;;6.53;;
22652;SDS011;11493;43.344;26.226;2023-07-02T10:37:43;9.07;;;6.90;;
22652;SDS011;11493;43.344;26.226;2023-07-02T10:40:11;10.15;;;6.30;;
22652;SDS011;11493;43.344;26.226;2023-07-02T10:42:48;5.90;;;5.40;;
22652;SDS011;11493;43.344;26.226;2023-07-02T10:45:17;10.50;;;6.28;;
22652;SDS011;11493;43.344;26.226;2023-07-02T10:47:46;7.03;;;5.93;;
22652;SDS011;11493;43.344;26.226;2023-07-02T10:50:17;6.95;;;6.07;;
22652;SDS011;11493;43.344;26.226;2023-07-02T10:52:46;7.07;;;5.80;;
22652;SDS011;11493;43.344;26.226;2023-07-02T10:55:18;7.22;;;5.90;;
22652;SDS011;11493;43.344;26.226;2023-07-02T10:57:49;6.90;;;6.30;;
22652;SDS011;11493;43.344;26.226;2023-07-02T11:00:18;8.02;;;6.72;;
22652;SDS011;11493;43.344;26.226;2023-07-02T11:02:46;10.07;;;6.75;;
22652;SDS011;11493;43.344;26.226;2023-07-02T11:05:13;9.05;;;6.13;;
22652;SDS011;11493;43.344;26.226;2023-07-02T11:07:41;6.65;;;6.07;;
22652;SDS011;11493;43.344;26.226;2023-07-02T11:10:09;14.60;;;6.72;;
22652;SDS011;11493;43.344;26.226;2023-07-02T11:12:43;6.85;;;6.25;;
22652;SDS011;11493;43.344;26.226;2023-07-02T11:15:12;7.07;;;6.38;;
22652;SDS011;11493;43.344;26.226;2023-07-02T11:17:40;8.38;;;6.15;;
22652;SDS011;11493;43.344;26.226;2023-07-02T11:20:09;6.60;;;5.97;;
22652;SDS011;11493;43.344;26.226;2023-07-02T11:22:38;7.90;;;5.68;;
22652;SDS011;11493;43.344;26.226;2023-07-02T11:27:43;8.00;;;5.28;;
22652;SDS011;11493;43.344;26.226;2023-07-02T11:30:11;6.63;;;4.35;;
22652;SDS011;11493;43.344;26.226;2023-07-02T11:32:50;4.97;;;4.47;;
22652;SDS011;11493;43.344;26.226;2023-07-02T11:35:20;5.53;;;4.50;;
22652;SDS011;11493;43.344;26.226;2023-07-02T11:37:48;5.63;;;5.13;;
22652;SDS011;11493;43.344;26.226;2023-07-02T11:40:19;4.63;;;3.80;;
22652;SDS011;11493;43.344;26.226;2023-07-02T11:42:52;5.68;;;3.38;;
22652;SDS011;11493;43.344;26.226;2023-07-02T11:45:19;6.47;;;3.90;;
22652;SDS011;11493;43.344;26.226;2023-07-02T11:50:17;3.80;;;3.50;;
22652;SDS011;11493;43.344;26.226;2023-07-02T11:52:52;7.20;;;3.75;;
22652;SDS011;11493;43.344;26.226;2023-07-02T11:55:20;5.15;;;4.30;;
22652;SDS011;11493;43.344;26.226;2023-07-02T11:57:48;3.28;;;2.95;;
22652;SDS011;11493;43.344;26.226;2023-07-02T12:00:16;4.00;;;3.10;;
22652;SDS011;11493;43.344;26.226;2023-07-02T12:02:44;4.45;;;3.13;;
22652;SDS011;11493;43.344;26.226;2023-07-02T12:05:11;5.70;;;3.35;;
22652;SDS011;11493;43.344;26.226;2023-07-02T12:07:39;3.38;;;3.05;;
22652;SDS011;11493;43.344;26.226;2023-07-02T12:10:07;3.40;;;3.10;;
22652;SDS011;11493;43.344;26.226;2023-07-02T12:12:35;6.05;;;3.80;;
22652;SDS011;11493;43.344;26.226;2023-07-02T12:15:02;4.78;;;3.60;;
22652;SDS011;11493;43.344;26.226;2023-07-02T12:17:29;6.70;;;3.95;;
22652;SDS011;11493;43.344;26.226;2023-07-02T12:19:57;4.15;;;3.72;;
22652;SDS011;11493;43.344;26.226;2023-07-02T12:22:25;5.82;;;3.17;;
22652;SDS011;11493;43.344;26.226;2023-07-02T12:24:52;6.03;;;3.83;;
22652;SDS011;11493;43.344;26.226;2023-07-02T12:27:22;7.22;;;3.97;;
22652;SDS011;11493;43.344;26.226;2023-07-02T12:29:51;5.80;;;4.25;;
22652;SDS011;11493;43.344;26.226;2023-07-02T12:32:18;5.35;;;3.65;;
22652;SDS011;11493;43.344;26.226;2023-07-02T12:34:49;5.93;;;4.20;;
22652;SDS011;11493;43.344;26.226;2023-07-02T12:37:22;4.68;;;3.95;;
22652;SDS011;11493;43.344;26.226;2023-07-02T12:39:49;9.43;;;4.43;;
22652;SDS011;11493;43.344;26.226;2023-07-02T12:42:16;4.20;;;3.80;;
22652;SDS011;11493;43.344;26.226;2023-07-02T12:44:44;7.65;;;4.47;;
22652;SDS011;11493;43.344;26.226;2023-07-02T12:47:14;5.72;;;4.57;;
22652;SDS011;11493;43.344;26.226;2023-07-02T12:49:51;4.53;;;4.13;;
22652;SDS011;11493;43.344;26.226;2023-07-02T12:52:19;7.95;;;4.90;;
22652;SDS011;11493;43.344;26.226;2023-07-02T12:54:46;7.60;;;3.75;;
22652;SDS011;11493;43.344;26.226;2023-07-02T12:57:13;5.72;;;4.60;;
22652;SDS011;11493;43.344;26.226;2023-07-02T12:59:42;8.93;;;5.15;;
22652;SDS011;11493;43.344;26.226;2023-07-02T13:02:09;5.10;;;4.13;;
22652;SDS011;11493;43.344;26.226;2023-07-02T13:04:40;4.90;;;4.40;;
22652;SDS011;11493;43.344;26.226;2023-07-02T13:07:07;4.97;;;4.53;;
22652;SDS011;11493;43.344;26.226;2023-07-02T13:09:35;5.05;;;4.50;;
22652;SDS011;11493;43.344;26.226;2023-07-02T13:12:02;5.25;;;4.45;;
22652;SDS011;11493;43.344;26.226;2023-07-02T13:14:30;5.90;;;4.40;;
22652;SDS011;11493;43.344;26.226;2023-07-02T13:16:57;5.65;;;4.55;;
22652;SDS011;11493;43.344;26.226;2023-07-02T13:19:26;7.78;;;5.30;;
22652;SDS011;11493;43.344;26.226;2023-07-02T13:21:53;6.80;;;5.70;;
22652;SDS011;11493;43.344;26.226;2023-07-02T13:24:20;13.18;;;5.10;;
22652;SDS011;11493;43.344;26.226;2023-07-02T13:26:47;6.65;;;6.15;;
22652;SDS011;11493;43.344;26.226;2023-07-02T13:29:14;8.70;;;5.88;;
22652;SDS011;11493;43.344;26.226;2023-07-02T13:31:41;7.90;;;5.13;;
22652;SDS011;11493;43.344;26.226;2023-07-02T13:34:08;5.78;;;4.55;;
22652;SDS011;11493;43.344;26.226;2023-07-02T13:36:35;5.00;;;4.60;;
22652;SDS011;11493;43.344;26.226;2023-07-02T13:39:02;10.18;;;4.55;;
22652;SDS011;11493;43.344;26.226;2023-07-02T13:41:30;10.48;;;4.55;;
22652;SDS011;11493;43.344;26.226;2023-07-02T13:43:57;5.72;;;3.53;;
22652;SDS011;11493;43.344;26.226;2023-07-02T13:46:24;4.32;;;3.85;;
22652;SDS011;11493;43.344;26.226;2023-07-02T13:48:51;4.75;;;4.20;;
22652;SDS011;11493;43.344;26.226;2023-07-02T13:51:18;9.70;;;4.03;;
22652;SDS011;11493;43.344;26.226;2023-07-02T13:53:45;9.15;;;4.72;;
22652;SDS011;11493;43.344;26.226;2023-07-02T13:56:12;7.65;;;4.40;;
22652;SDS011;11493;43.344;26.226;2023-07-02T14:01:22;5.00;;;4.20;;
22652;SDS011;11493;43.344;26.226;2023-07-02T14:03:50;4.80;;;4.32;;
22652;SDS011;11493;43.344;26.226;2023-07-02T14:06:17;7.00;;;4.85;;
22652;SDS011;11493;43.344;26.226;2023-07-02T14:08:44;5.55;;;4.88;;
22652;SDS011;11493;43.344;26.226;2023-07-02T14:11:15;6.70;;;4.23;;
22652;SDS011;11493;43.344;26.226;2023-07-02T14:13:42;5.20;;;4.32;;
22652;SDS011;11493;43.344;26.226;2023-07-02T14:16:09;6.15;;;4.18;;
22652;SDS011;11493;43.344;26.226;2023-07-02T14:18:37;4.28;;;3.90;;
22652;SDS011;11493;43.344;26.226;2023-07-02T14:21:04;6.18;;;4.35;;
22652;SDS011;11493;43.344;26.226;2023-07-02T14:23:32;5.95;;;4.75;;
22652;SDS011;11493;43.344;26.226;2023-07-02T14:25:59;7.00;;;4.90;;
22652;SDS011;11493;43.344;26.226;2023-07-02T14:28:27;5.07;;;4.57;;
22652;SDS011;11493;43.344;26.226;2023-07-02T14:30:56;6.20;;;4.15;;
22652;SDS011;11493;43.344;26.226;2023-07-02T14:33:26;4.95;;;3.92;;
22652;SDS011;11493;43.344;26.226;2023-07-02T14:35:54;5.10;;;4.55;;
22652;SDS011;11493;43.344;26.226;2023-07-02T14:38:21;5.78;;;4.22;;
22652;SDS011;11493;43.344;26.226;2023-07-02T14:40:49;4.38;;;3.97;;
22652;SDS011;11493;43.344;26.226;2023-07-02T14:43:17;6.40;;;4.43;;
22652;SDS011;11493;43.344;26.226;2023-07-02T14:45:48;8.95;;;4.10;;
22652;SDS011;11493;43.344;26.226;2023-07-02T14:48:17;4.95;;;4.03;;
22652;SDS011;11493;43.344;26.226;2023-07-02T14:50:48;4.07;;;3.78;;
22652;SDS011;11493;43.344;26.226;2023-07-02T14:53:17;5.30;;;4.43;;
22652;SDS011;11493;43.344;26.226;2023-07-02T14:55:45;5.30;;;4.07;;